Time;durP1;ratioP1;P1;durP2;ratioP2;P2;SDS_P1;SDS_P2;PMS_P1;PMS_P2;Temp;Humidity;BMP_temperature;BMP_pressure;BME280_temperature;BME280_humidity;BME280_pressure;Samples;Min_cycle;Max_cycle;Signal;HPM_P1;HPM_P2
2022/11/15 00:01:00;;;;;;;6.70;5.07;;;11.30;99.90;;;;;;5078415;28;20461;-70
2022/11/15 00:03:28;;;;;;;6.60;5.93;;;11.30;99.90;;;;;;5078248;28;20454;-70
2022/11/15 00:05:55;;;;;;;6.10;5.60;;;11.30;99.90;;;;;;5077813;28;20941;-72
2022/11/15 00:08:21;;;;;;;7.40;5.50;;;11.30;99.90;;;;;;5078107;28;20453;-71
2022/11/15 00:10:55;;;;;;;5.73;4.93;;;11.30;99.90;;;;;;5077813;28;20937;-71
2022/11/15 00:13:22;;;;;;;6.87;5.47;;;11.40;99.90;;;;;;5078818;28;20507;-71
2022/11/15 00:15:50;;;;;;;6.37;4.33;;;11.30;99.90;;;;;;5078062;28;20523;-71
2022/11/15 00:18:17;;;;;;;4.70;4.30;;;11.30;99.90;;;;;;5078060;28;20458;-71
2022/11/15 00:20:44;;;;;;;5.47;5.00;;;11.40;99.90;;;;;;5077622;28;20454;-72
2022/11/15 00:23:11;;;;;;;6.07;5.03;;;11.40;99.90;;;;;;5077547;28;20938;-71
2022/11/15 00:25:38;;;;;;;5.63;4.27;;;11.40;99.90;;;;;;5077640;28;20878;-71
2022/11/15 00:28:05;;;;;;;5.13;4.30;;;11.40;99.90;;;;;;5077002;28;20460;-71
2022/11/15 00:30:32;;;;;;;5.60;5.10;;;11.40;99.90;;;;;;5077478;28;20446;-71
2022/11/15 00:33:04;;;;;;;4.83;4.33;;;11.40;99.90;;;;;;5080017;28;20480;-71
2022/11/15 00:35:32;;;;;;;4.30;4.00;;;11.50;99.90;;;;;;5086771;28;20474;-70
2022/11/15 00:37:59;;;;;;;6.10;5.00;;;11.40;99.90;;;;;;5081111;28;20529;-70
2022/11/15 00:40:26;;;;;;;5.00;4.50;;;11.40;99.90;;;;;;5077604;28;20488;-71
2022/11/15 00:42:53;;;;;;;5.40;4.97;;;11.40;99.90;;;;;;5077480;28;20499;-70
2022/11/15 00:45:19;;;;;;;4.77;4.37;;;11.40;99.90;;;;;;5077190;28;20547;-71
2022/11/15 00:47:46;;;;;;;4.93;4.43;;;11.40;99.90;;;;;;5076667;28;20454;-71
2022/11/15 00:50:14;;;;;;;5.43;4.83;;;11.40;99.90;;;;;;5077085;28;20438;-70
2022/11/15 00:52:41;;;;;;;6.40;4.50;;;11.40;99.90;;;;;;5076928;28;20455;-71
2022/11/15 00:55:09;;;;;;;5.17;4.70;;;11.40;99.90;;;;;;5076901;28;20492;-71
2022/11/15 00:57:36;;;;;;;4.87;4.47;;;11.50;99.90;;;;;;5076728;28;20504;-71
2022/11/15 01:00:03;;;;;;;7.10;4.43;;;11.40;99.90;;;;;;5076969;28;20508;-70
2022/11/15 01:02:30;;;;;;;4.90;4.50;;;11.40;99.90;;;;;;5076917;28;20453;-70
2022/11/15 01:04:57;;;;;;;5.17;4.57;;;11.40;99.90;;;;;;5076810;28;20523;-72
2022/11/15 01:07:25;;;;;;;4.73;4.27;;;11.40;99.90;;;;;;5075663;28;20523;-71
2022/11/15 01:09:51;;;;;;;4.47;4.00;;;11.40;99.90;;;;;;5076832;28;20503;-72
2022/11/15 01:12:18;;;;;;;4.93;4.27;;;11.40;99.90;;;;;;5076736;28;20450;-71
2022/11/15 01:14:45;;;;;;;4.30;4.00;;;11.30;99.90;;;;;;5076345;28;21021;-72
2022/11/15 01:17:11;;;;;;;4.67;4.27;;;11.30;99.90;;;;;;5076784;28;20454;-71
2022/11/15 01:19:38;;;;;;;5.13;4.70;;;11.30;99.90;;;;;;5076401;28;20987;-71
2022/11/15 01:22:05;;;;;;;4.90;4.40;;;11.30;99.90;;;;;;5076572;28;20904;-72
2022/11/15 01:24:32;;;;;;;5.00;4.50;;;11.20;99.90;;;;;;5077348;28;20470;-72
2022/11/15 01:26:59;;;;;;;6.80;4.77;;;11.20;99.90;;;;;;5076695;28;20450;-72
2022/11/15 01:29:26;;;;;;;5.07;4.67;;;11.10;99.90;;;;;;5076520;28;20458;-72
2022/11/15 01:31:54;;;;;;;4.97;4.63;;;11.10;99.90;;;;;;5076357;28;20454;-72
2022/11/15 01:34:20;;;;;;;7.17;5.23;;;11.00;99.90;;;;;;5076100;28;20907;-71
2022/11/15 01:36:47;;;;;;;5.23;4.73;;;11.00;99.90;;;;;;5075823;28;21003;-72
2022/11/15 01:39:15;;;;;;;6.03;5.40;;;10.90;99.90;;;;;;5076329;28;20458;-72
2022/11/15 01:41:43;;;;;;;8.20;6.07;;;10.90;99.90;;;;;;5076319;28;20449;-71
2022/11/15 01:44:41;;;;;;;6.67;5.77;;;10.80;99.90;;;;;;5076076;28;20458;-72
2022/11/15 01:47:12;;;;;;;6.13;5.53;;;10.80;99.90;;;;;;5070465;28;20996;-72
2022/11/15 01:49:43;;;;;;;5.60;5.07;;;10.80;99.90;;;;;;5075811;28;20481;-71
2022/11/15 01:52:14;;;;;;;6.63;5.30;;;10.70;99.90;;;;;;5076145;28;20521;-71
2022/11/15 01:54:41;;;;;;;6.57;5.93;;;10.70;99.90;;;;;;5075683;28;20578;-71
2022/11/15 01:57:11;;;;;;;5.07;4.50;;;10.70;99.90;;;;;;5075466;28;20968;-72
2022/11/15 01:59:40;;;;;;;7.70;6.60;;;10.60;99.90;;;;;;5075603;28;20955;-71
2022/11/15 02:02:07;;;;;;;4.50;4.10;;;10.60;99.90;;;;;;5075877;28;20450;-72
2022/11/15 02:04:37;;;;;;;5.77;5.27;;;10.60;99.90;;;;;;5075629;28;20516;-71
2022/11/15 02:07:05;;;;;;;5.03;4.53;;;10.60;99.90;;;;;;5075678;28;20460;-71
2022/11/15 02:09:32;;;;;;;5.40;4.90;;;10.60;99.90;;;;;;5075572;28;20450;-72
2022/11/15 02:11:59;;;;;;;5.90;5.30;;;10.60;99.90;;;;;;5076757;28;20827;-71
2022/11/15 02:14:29;;;;;;;7.93;4.50;;;10.70;99.90;;;;;;5086084;28;20486;-71
2022/11/15 02:17:00;;;;;;;6.30;4.30;;;10.70;99.90;;;;;;5087372;28;20446;-71
2022/11/15 02:19:51;;;;;;;4.80;4.40;;;10.70;99.90;;;;;;5078011;28;20495;-71
2022/11/15 02:22:34;;;;;;;4.77;4.37;;;10.80;99.90;;;;;;5077321;28;20484;-70
2022/11/15 02:25:25;;;;;;;4.70;4.10;;;10.80;99.90;;;;;;5076793;28;20524;-71
2022/11/15 02:28:11;;;;;;;4.37;3.97;;;10.80;99.90;;;;;;5076469;28;20488;-71
2022/11/15 02:30:43;;;;;;;4.80;4.40;;;10.90;99.90;;;;;;5076364;28;20500;-71
2022/11/15 02:33:21;;;;;;;4.17;3.73;;;10.90;99.90;;;;;;5075994;28;20488;-71
2022/11/15 02:35:55;;;;;;;4.40;4.10;;;11.00;99.90;;;;;;5075453;28;20478;-71
2022/11/15 02:38:30;;;;;;;4.40;3.63;;;11.00;99.90;;;;;;5075499;28;20492;-71
2022/11/15 02:41:02;;;;;;;4.00;3.60;;;11.10;99.90;;;;;;5077140;28;20468;-71
2022/11/15 02:47:12;;;;;;;3.43;3.13;;;11.20;99.90;;;;;;5083605;28;20421;-72
2022/11/15 02:49:13;;;;;;;6.43;3.50;;;11.20;99.90;;;;;;5076954;28;20478;-70
2022/11/15 02:51:41;;;;;;;3.60;3.23;;;11.20;99.90;;;;;;5077563;28;20504;-71
2022/11/15 02:54:11;;;;;;;4.03;3.17;;;11.30;99.90;;;;;;5076751;28;20974;-71
2022/11/15 02:56:38;;;;;;;4.47;3.83;;;11.30;99.90;;;;;;5077267;28;20450;-71
2022/11/15 02:59:17;;;;;;;3.90;3.30;;;11.30;99.90;;;;;;5075993;28;20457;-70
2022/11/15 03:01:57;;;;;;;4.30;3.20;;;11.30;99.90;;;;;;5076087;28;20487;-70
2022/11/15 03:04:31;;;;;;;3.90;3.50;;;11.40;99.90;;;;;;5075806;28;20519;-71
2022/11/15 03:07:06;;;;;;;3.20;3.00;;;11.30;99.90;;;;;;5075827;28;20827;-71
2022/11/15 03:09:35;;;;;;;3.90;3.63;;;11.30;99.90;;;;;;5074860;28;20840;-71
2022/11/15 03:12:11;;;;;;;3.30;3.00;;;11.30;99.90;;;;;;5074374;28;20867;-70
2022/11/15 03:14:44;;;;;;;3.80;3.60;;;11.20;99.90;;;;;;5074034;28;20478;-72
2022/11/15 03:17:16;;;;;;;4.20;3.63;;;11.20;99.90;;;;;;5074872;28;20435;-71
2022/11/15 03:19:46;;;;;;;4.70;4.30;;;11.20;99.90;;;;;;5074404;28;20438;-71
2022/11/15 03:22:17;;;;;;;6.00;5.17;;;11.20;99.90;;;;;;5075389;28;20454;-71
2022/11/15 03:24:46;;;;;;;5.77;5.00;;;11.10;99.90;;;;;;5075884;28;20470;-71
2022/11/15 03:27:16;;;;;;;6.83;5.13;;;11.00;99.90;;;;;;5075955;28;20504;-71
2022/11/15 03:29:48;;;;;;;7.47;6.40;;;10.90;99.90;;;;;;5075506;28;20438;-71
2022/11/15 03:32:22;;;;;;;6.70;5.50;;;10.70;99.90;;;;;;5079070;28;20486;-71
2022/11/15 03:34:51;;;;;;;8.90;7.10;;;10.60;99.90;;;;;;5080108;28;20504;-72
2022/11/15 03:37:21;;;;;;;7.00;6.30;;;10.50;99.90;;;;;;5079330;28;20454;-71
2022/11/15 03:39:47;;;;;;;7.20;6.50;;;10.30;99.90;;;;;;5079270;28;20449;-71
2022/11/15 03:42:23;;;;;;;8.03;7.30;;;10.20;99.90;;;;;;5079415;28;20871;-71
2022/11/15 03:44:57;;;;;;;7.43;6.83;;;10.20;99.90;;;;;;5078753;28;20969;-73
2022/11/15 03:47:30;;;;;;;11.20;7.23;;;10.10;99.90;;;;;;5079038;28;20438;-71
2022/11/15 03:50:01;;;;;;;7.73;7.10;;;10.00;99.90;;;;;;5077920;28;20433;-71
2022/11/15 03:52:33;;;;;;;7.90;7.10;;;10.00;99.90;;;;;;5078168;28;20430;-70
2022/11/15 03:55:01;;;;;;;8.40;6.87;;;9.90;99.90;;;;;;5078171;28;20478;-71
2022/11/15 03:57:28;;;;;;;8.43;7.20;;;9.90;99.90;;;;;;5077918;28;20450;-72
2022/11/15 03:59:54;;;;;;;9.00;7.30;;;9.90;99.90;;;;;;5077853;28;20450;-71
2022/11/15 04:02:21;;;;;;;7.67;6.97;;;9.90;99.90;;;;;;5077715;28;20937;-71
2022/11/15 04:04:49;;;;;;;7.53;6.93;;;10.00;99.90;;;;;;5077971;28;20473;-71
2022/11/15 04:07:16;;;;;;;8.03;7.23;;;10.00;99.90;;;;;;5077956;28;20503;-72
2022/11/15 04:12:30;;;;;;;8.00;7.20;;;10.00;99.90;;;;;;5077669;28;20449;-71
2022/11/15 04:15:07;;;;;;;7.90;6.80;;;10.10;99.90;;;;;;5077339;28;21069;-71
2022/11/15 04:17:34;;;;;;;7.37;6.77;;;10.10;99.90;;;;;;5077543;28;20438;-71
2022/11/15 04:25:31;;;;;;;10.17;7.13;;;10.10;99.90;;;;;;5079021;28;20457;-72
2022/11/15 04:27:58;;;;;;;7.70;7.10;;;10.00;99.90;;;;;;5077819;28;20454;-71
2022/11/15 04:30:24;;;;;;;8.43;7.63;;;10.00;99.90;;;;;;5077402;28;20458;-71
2022/11/15 04:32:51;;;;;;;9.63;6.70;;;10.00;99.90;;;;;;5078297;28;20503;-71
2022/11/15 04:35:19;;;;;;;10.17;7.87;;;10.00;99.90;;;;;;5078173;28;20555;-71
2022/11/15 04:37:46;;;;;;;8.13;7.43;;;10.00;99.90;;;;;;5077262;28;20945;-70
2022/11/15 04:40:12;;;;;;;8.10;6.97;;;10.00;99.90;;;;;;5078828;28;20453;-71
2022/11/15 04:42:41;;;;;;;8.40;7.60;;;10.00;99.90;;;;;;5078270;28;20450;-71
2022/11/15 04:45:08;;;;;;;7.93;7.20;;;10.00;99.90;;;;;;5083392;28;20470;-72
2022/11/15 04:47:35;;;;;;;7.80;7.10;;;10.00;99.90;;;;;;5078865;28;20446;-71
2022/11/15 04:50:02;;;;;;;8.40;7.60;;;10.00;99.90;;;;;;5078765;28;20491;-72
2022/11/15 04:52:30;;;;;;;8.10;7.40;;;9.90;99.90;;;;;;5077232;28;20450;-71
2022/11/15 04:54:57;;;;;;;8.47;7.50;;;9.90;99.90;;;;;;5077922;28;20470;-71
2022/11/15 04:57:23;;;;;;;8.33;7.60;;;9.90;99.90;;;;;;5078109;28;20477;-71
2022/11/15 04:59:50;;;;;;;8.27;7.37;;;9.90;99.90;;;;;;5077129;28;20999;-71
2022/11/15 05:02:17;;;;;;;8.77;7.77;;;9.80;99.90;;;;;;5079298;28;20450;-71
2022/11/15 05:04:42;;;;;;;7.80;7.20;;;9.80;99.90;;;;;;5088684;28;20492;-71
2022/11/15 05:07:09;;;;;;;7.70;7.00;;;9.80;99.90;;;;;;5087246;28;20446;-71
2022/11/15 05:09:37;;;;;;;7.60;6.90;;;9.70;99.90;;;;;;5079355;28;20586;-71
2022/11/15 05:12:04;;;;;;;8.20;7.40;;;9.70;99.90;;;;;;5078683;28;20450;-71
2022/11/15 05:14:30;;;;;;;7.20;5.97;;;9.70;99.90;;;;;;5078688;28;20549;-70
2022/11/15 05:16:57;;;;;;;7.97;7.27;;;9.60;99.90;;;;;;5079391;28;20469;-71
2022/11/15 05:19:24;;;;;;;10.03;7.53;;;9.60;99.90;;;;;;5077721;28;20454;-70
2022/11/15 05:21:50;;;;;;;8.17;7.37;;;9.60;99.90;;;;;;5077643;28;20454;-71
2022/11/15 05:24:17;;;;;;;8.40;7.60;;;9.60;99.90;;;;;;5078028;28;20462;-71
2022/11/15 05:26:45;;;;;;;8.73;7.93;;;9.60;99.90;;;;;;5076927;28;20450;-71
2022/11/15 05:29:12;;;;;;;7.83;7.03;;;9.60;99.90;;;;;;5076905;28;20449;-71
2022/11/15 05:31:41;;;;;;;8.83;7.93;;;9.60;99.90;;;;;;5077347;28;20938;-71
2022/11/15 05:34:08;;;;;;;8.33;7.53;;;9.60;99.90;;;;;;5077551;28;20520;-71
2022/11/15 05:36:38;;;;;;;7.23;6.60;;;9.60;99.90;;;;;;5076825;28;20446;-71
2022/11/15 05:39:06;;;;;;;7.93;7.10;;;9.60;99.90;;;;;;5077508;28;20628;-71
2022/11/15 05:41:36;;;;;;;8.13;7.30;;;9.60;99.90;;;;;;5076746;28;20515;-71
2022/11/15 05:44:08;;;;;;;11.20;7.50;;;9.60;99.90;;;;;;5076199;28;20478;-71
2022/11/15 05:46:37;;;;;;;9.23;7.43;;;9.50;99.90;;;;;;5076005;28;20445;-71
2022/11/15 05:49:07;;;;;;;8.57;7.87;;;9.40;99.90;;;;;;5075732;28;20461;-71
2022/11/15 05:51:34;;;;;;;9.63;8.73;;;9.40;99.90;;;;;;5075907;28;20445;-71
2022/11/15 05:54:02;;;;;;;9.17;8.37;;;9.30;99.90;;;;;;5074963;28;20474;-70
2022/11/15 05:56:30;;;;;;;9.20;8.07;;;9.30;99.90;;;;;;5075563;28;20460;-71
2022/11/15 05:58:58;;;;;;;9.13;8.30;;;9.20;99.90;;;;;;5075750;28;20450;-70
2022/11/15 06:01:27;;;;;;;9.83;8.87;;;9.20;99.90;;;;;;5075259;28;20849;-71
2022/11/15 06:03:53;;;;;;;9.70;8.70;;;9.20;99.90;;;;;;5075514;28;20478;-71
2022/11/15 06:06:20;;;;;;;9.17;8.27;;;9.10;99.90;;;;;;5077328;28;20450;-70
2022/11/15 06:08:47;;;;;;;8.73;7.80;;;9.10;99.90;;;;;;5075517;28;20503;-71
2022/11/15 06:11:14;;;;;;;8.70;7.90;;;9.10;99.90;;;;;;5075409;28;20604;-71
2022/11/15 06:13:41;;;;;;;9.30;8.50;;;9.10;99.90;;;;;;5075709;28;20483;-70
2022/11/15 06:16:07;;;;;;;10.70;7.80;;;9.10;99.90;;;;;;5075470;28;20474;-71
2022/11/15 06:18:36;;;;;;;9.73;8.83;;;9.10;99.90;;;;;;5075078;28;20446;-71
2022/11/15 06:21:03;;;;;;;8.63;7.67;;;9.20;99.90;;;;;;5075277;28;20997;-71
2022/11/15 06:23:33;;;;;;;9.17;8.23;;;9.20;99.90;;;;;;5075358;28;20816;-70
2022/11/15 06:26:00;;;;;;;8.67;7.90;;;9.20;99.90;;;;;;5075369;28;20503;-71
2022/11/15 06:28:29;;;;;;;8.63;7.77;;;9.30;99.90;;;;;;5075311;28;20504;-70
2022/11/15 06:30:55;;;;;;;9.17;8.30;;;9.30;99.90;;;;;;5075655;28;20850;-70
2022/11/15 06:33:22;;;;;;;11.23;8.20;;;9.30;99.90;;;;;;5081741;28;20512;-72
2022/11/15 06:35:50;;;;;;;9.20;7.90;;;9.30;99.90;;;;;;5078114;28;20876;-71
2022/11/15 06:38:17;;;;;;;7.60;6.87;;;9.30;99.90;;;;;;5075170;28;20450;-71
2022/11/15 06:40:43;;;;;;;8.53;7.73;;;9.40;99.90;;;;;;5075327;28;21003;-72
2022/11/15 06:43:10;;;;;;;12.33;7.43;;;9.40;99.90;;;;;;5075482;28;20458;-71
2022/11/15 06:45:37;;;;;;;7.63;6.93;;;9.40;99.90;;;;;;5075695;28;20466;-72
2022/11/15 06:48:03;;;;;;;7.57;6.87;;;9.30;99.90;;;;;;5075510;28;20515;-71
2022/11/15 06:50:30;;;;;;;7.20;6.50;;;9.40;99.90;;;;;;5075673;28;20877;-72
2022/11/15 06:53:03;;;;;;;7.70;6.90;;;9.40;99.90;;;;;;5075480;28;20817;-73
2022/11/15 06:55:29;;;;;;;8.57;7.80;;;9.50;99.90;;;;;;5075698;28;20536;-72
2022/11/15 06:57:56;;;;;;;7.37;6.67;;;9.50;99.90;;;;;;5076043;28;20477;-71
2022/11/15 07:00:23;;;;;;;8.77;7.17;;;9.60;99.90;;;;;;5076172;28;20484;-71
2022/11/15 07:02:50;;;;;;;8.50;7.60;;;9.60;99.90;;;;;;5075751;28;20450;-71
2022/11/15 07:05:17;;;;;;;7.57;6.83;;;9.70;99.90;;;;;;5074886;28;20466;-71
2022/11/15 07:07:43;;;;;;;8.40;6.70;;;9.70;99.90;;;;;;5075534;28;20794;-71
2022/11/15 07:10:11;;;;;;;8.37;7.30;;;9.80;99.90;;;;;;5076134;28;20791;-72
2022/11/15 07:12:38;;;;;;;7.27;6.57;;;9.80;99.90;;;;;;5075761;28;20484;-71
2022/11/15 07:15:06;;;;;;;8.23;7.40;;;9.90;99.90;;;;;;5081683;28;20470;-71
2022/11/15 07:17:33;;;;;;;7.93;7.13;;;10.00;99.90;;;;;;5091931;28;20450;-71
2022/11/15 07:19:59;;;;;;;6.57;6.07;;;10.10;99.90;;;;;;5091948;28;20442;-71
2022/11/15 07:22:26;;;;;;;9.50;7.13;;;10.20;99.90;;;;;;5091056;28;20451;-71
2022/11/15 07:24:53;;;;;;;7.87;7.07;;;10.30;99.90;;;;;;5091583;28;20454;-71
2022/11/15 07:27:20;;;;;;;10.53;6.73;;;10.50;99.90;;;;;;5080225;28;20951;-71
2022/11/15 07:29:47;;;;;;;12.30;7.33;;;10.90;99.90;;;;;;5075103;28;20458;-72
2022/11/15 07:32:14;;;;;;;9.07;7.17;;;11.40;99.90;;;;;;5074623;28;20449;-71
2022/11/15 07:34:40;;;;;;;9.90;7.70;;;12.00;99.90;;;;;;5074352;28;20470;-71
2022/11/15 07:37:07;;;;;;;21.77;19.47;;;12.70;99.90;;;;;;5073787;28;20957;-72
2022/11/15 07:39:34;;;;;;;16.70;14.60;;;13.00;99.90;;;;;;5074403;28;20934;-71
2022/11/15 07:44:46;;;;;;;9.70;8.80;;;14.00;99.90;;;;;;5074074;28;20551;-72
2022/11/15 07:47:13;;;;;;;8.53;6.03;;;14.70;99.90;;;;;;5074301;28;20496;-72
2022/11/15 07:49:39;;;;;;;8.37;5.60;;;14.90;99.90;;;;;;5073741;28;20810;-73
2022/11/15 07:52:06;;;;;;;7.03;5.50;;;14.90;99.90;;;;;;5073933;28;20457;-72
2022/11/15 07:54:33;;;;;;;7.27;6.57;;;15.00;99.90;;;;;;5074166;28;20539;-72
2022/11/15 07:56:59;;;;;;;7.40;6.67;;;14.90;99.90;;;;;;5073751;28;20456;-72
2022/11/15 07:59:26;;;;;;;8.23;5.53;;;14.60;99.90;;;;;;5073857;28;20503;-72
2022/11/15 08:01:54;;;;;;;6.47;5.63;;;14.40;99.90;;;;;;5074091;28;20611;-70
2022/11/15 08:04:21;;;;;;;8.70;5.90;;;14.30;99.90;;;;;;5073636;28;20875;-72
2022/11/15 08:06:47;;;;;;;7.83;5.70;;;14.10;99.90;;;;;;5073919;28;20446;-71
2022/11/15 08:09:14;;;;;;;6.30;5.70;;;14.10;99.90;;;;;;5073852;28;20451;-71
2022/11/15 08:11:41;;;;;;;7.00;6.30;;;13.90;99.90;;;;;;5074452;28;20457;-72
2022/11/15 08:14:07;;;;;;;5.90;5.30;;;13.90;99.90;;;;;;5074465;28;20880;-71
2022/11/15 08:16:34;;;;;;;7.50;6.10;;;14.00;99.90;;;;;;5074649;28;20478;-70
2022/11/15 08:19:02;;;;;;;12.57;7.00;;;14.00;99.90;;;;;;5078191;28;20507;-71
2022/11/15 08:21:29;;;;;;;7.27;6.53;;;13.90;99.90;;;;;;5078746;28;20449;-72
2022/11/15 08:23:56;;;;;;;11.00;7.20;;;13.90;99.90;;;;;;5077443;28;20473;-71
2022/11/15 08:26:22;;;;;;;10.43;5.77;;;13.80;99.90;;;;;;5077024;28;20445;-71
2022/11/15 08:28:49;;;;;;;7.93;4.87;;;13.70;99.90;;;;;;5077353;28;20450;-72
2022/11/15 08:31:18;;;;;;;7.13;5.90;;;13.60;99.90;;;;;;5077215;28;20479;-71
2022/11/15 08:33:45;;;;;;;5.97;5.40;;;13.50;99.90;;;;;;5077037;28;20454;-70
2022/11/15 08:36:17;;;;;;;8.77;5.23;;;13.40;99.90;;;;;;5077172;28;20473;-72
2022/11/15 08:38:44;;;;;;;6.07;5.57;;;13.40;99.90;;;;;;5077209;28;20484;-71
2022/11/15 08:41:14;;;;;;;5.70;5.17;;;13.70;99.90;;;;;;5076870;28;20453;-71
2022/11/15 08:43:41;;;;;;;4.80;4.30;;;14.50;99.90;;;;;;5076765;28;20434;-71
2022/11/15 08:46:11;;;;;;;4.77;4.30;;;15.70;99.90;;;;;;5076919;28;20430;-72
2022/11/15 08:48:38;;;;;;;4.90;4.40;;;16.70;99.90;;;;;;5078262;28;20465;-72
2022/11/15 08:51:05;;;;;;;4.97;4.60;;;17.60;99.90;;;;;;5077893;28;20450;-72
2022/11/15 08:53:34;;;;;;;4.33;3.80;;;18.20;99.90;;;;;;5076990;28;20473;-70
2022/11/15 08:56:00;;;;;;;5.80;4.73;;;18.90;99.90;;;;;;5076690;28;20527;-71
2022/11/15 08:58:27;;;;;;;6.03;4.30;;;19.50;99.90;;;;;;5077588;28;20794;-72
2022/11/15 09:00:54;;;;;;;5.40;4.83;;;19.70;99.90;;;;;;5076764;28;20512;-70
2022/11/15 09:03:21;;;;;;;5.43;4.93;;;19.70;97.50;;;;;;5076358;28;20477;-70
2022/11/15 09:05:47;;;;;;;5.07;4.57;;;19.70;97.70;;;;;;5076952;28;20466;-69
2022/11/15 09:08:14;;;;;;;4.80;4.37;;;19.40;97.40;;;;;;5076306;28;20450;-69
2022/11/15 09:10:42;;;;;;;4.80;4.40;;;19.10;98.10;;;;;;5076384;28;20454;-69
2022/11/15 09:13:08;;;;;;;5.37;4.87;;;18.90;99.00;;;;;;5076473;28;20460;-70
2022/11/15 09:15:35;;;;;;;7.40;4.83;;;18.50;98.40;;;;;;5076219;28;20482;-69
2022/11/15 09:18:02;;;;;;;4.73;4.33;;;17.90;99.20;;;;;;5076331;28;20455;-69
2022/11/15 09:20:29;;;;;;;5.57;5.00;;;17.60;99.90;;;;;;5076475;28;20461;-70
2022/11/15 09:22:55;;;;;;;5.00;4.60;;;17.30;99.90;;;;;;5076331;28;20459;-70
2022/11/15 09:25:22;;;;;;;5.60;5.00;;;17.00;99.90;;;;;;5077198;28;20539;-69
2022/11/15 09:27:50;;;;;;;5.50;4.53;;;16.80;99.90;;;;;;5075699;28;20454;-68
2022/11/15 09:30:17;;;;;;;6.90;4.93;;;16.80;99.90;;;;;;5075575;28;20453;-69
2022/11/15 09:32:43;;;;;;;5.00;4.33;;;16.60;99.90;;;;;;5075913;28;20450;-69
2022/11/15 09:35:10;;;;;;;5.80;5.23;;;16.40;99.90;;;;;;5075635;28;20481;-69
2022/11/15 09:37:37;;;;;;;5.37;4.87;;;16.30;99.90;;;;;;5075602;28;20454;-70
2022/11/15 09:40:05;;;;;;;7.63;4.87;;;16.20;99.90;;;;;;5075785;28;20465;-69
2022/11/15 09:42:53;;;;;;;4.80;4.40;;;16.10;99.90;;;;;;5075598;28;20450;-69
2022/11/15 09:45:23;;;;;;;6.20;5.63;;;16.00;99.90;;;;;;5075569;28;20465;-69
2022/11/15 09:48:23;;;;;;;5.27;4.77;;;16.30;99.90;;;;;;5075531;28;20905;-68
2022/11/15 09:50:53;;;;;;;4.67;4.27;;;16.50;99.90;;;;;;5064412;28;20462;-69
2022/11/15 09:53:26;;;;;;;4.87;4.40;;;17.00;99.90;;;;;;5076248;28;20900;-69
2022/11/15 09:55:58;;;;;;;6.37;4.40;;;17.70;99.90;;;;;;5075448;28;20508;-69
2022/11/15 09:58:34;;;;;;;4.27;3.87;;;18.50;99.90;;;;;;5075630;28;20445;-69
2022/11/15 10:01:03;;;;;;;5.70;4.33;;;19.40;99.90;;;;;;5075629;28;20438;-69
2022/11/15 10:03:34;;;;;;;4.03;3.73;;;20.00;97.70;;;;;;5075582;28;20450;-69
2022/11/15 10:06:03;;;;;;;3.90;3.40;;;20.10;99.60;;;;;;5075379;28;20442;-68
2022/11/15 10:08:58;;;;;;;4.47;4.07;;;19.80;96.10;;;;;;5075622;28;20454;-68
2022/11/15 10:11:28;;;;;;;3.80;3.40;;;19.50;96.70;;;;;;5070270;28;20853;-69
2022/11/15 10:13:58;;;;;;;6.03;3.67;;;19.10;97.20;;;;;;5075197;28;20474;-68
2022/11/15 10:16:41;;;;;;;6.37;3.87;;;18.70;97.40;;;;;;5075452;28;20462;-68
2022/11/15 10:19:16;;;;;;;3.97;3.60;;;18.20;98.20;;;;;;5075141;28;20910;-68
2022/11/15 10:21:54;;;;;;;3.97;3.67;;;17.90;99.70;;;;;;5075582;28;20464;-69
2022/11/15 10:24:27;;;;;;;4.00;3.60;;;17.60;99.90;;;;;;5074623;28;21025;-68
2022/11/15 10:26:56;;;;;;;3.97;3.67;;;17.30;99.90;;;;;;5075540;28;20435;-68
2022/11/15 10:29:25;;;;;;;5.30;4.40;;;17.00;99.90;;;;;;5075157;28;20455;-68
2022/11/15 10:31:52;;;;;;;4.57;4.17;;;16.60;99.90;;;;;;5074931;28;20504;-70
2022/11/15 10:34:21;;;;;;;6.73;4.60;;;16.40;99.90;;;;;;5075352;28;20470;-70
2022/11/15 10:36:55;;;;;;;5.43;4.00;;;16.20;99.90;;;;;;5075075;28;20563;-71
2022/11/15 10:39:22;;;;;;;3.90;3.60;;;16.10;99.90;;;;;;5074859;28;20456;-71
2022/11/15 10:41:49;;;;;;;11.17;4.10;;;16.00;99.90;;;;;;5074975;28;20458;-71
2022/11/15 10:44:23;;;;;;;4.07;3.60;;;15.90;99.90;;;;;;5074844;28;20533;-72
2022/11/15 10:47:07;;;;;;;4.10;3.80;;;15.80;99.90;;;;;;5074939;28;20521;-71
2022/11/15 10:49:35;;;;;;;5.90;3.50;;;15.70;99.90;;;;;;5074632;28;20465;-70
2022/11/15 10:52:06;;;;;;;4.00;3.40;;;15.70;99.90;;;;;;5074695;28;20454;-71
2022/11/15 10:54:38;;;;;;;7.83;3.47;;;15.60;99.90;;;;;;5074529;28;20536;-71
2022/11/15 10:57:11;;;;;;;9.47;3.73;;;15.60;99.90;;;;;;5074662;28;20462;-70
2022/11/15 10:59:39;;;;;;;6.67;3.57;;;15.50;99.90;;;;;;5074696;28;20439;-70
2022/11/15 11:02:28;;;;;;;4.57;4.17;;;15.50;99.90;;;;;;5074984;28;20458;-70
2022/11/15 11:04:54;;;;;;;6.60;4.07;;;15.50;99.90;;;;;;5074145;28;20846;-71
2022/11/15 11:07:23;;;;;;;4.90;3.60;;;15.40;99.90;;;;;;5074279;28;20430;-71
2022/11/15 11:09:59;;;;;;;4.20;3.80;;;15.30;99.90;;;;;;5074039;28;20976;-71
2022/11/15 11:12:29;;;;;;;6.10;3.80;;;15.30;99.90;;;;;;5074137;28;20902;-70
2022/11/15 11:14:56;;;;;;;4.77;3.60;;;15.30;99.90;;;;;;5076470;28;20474;-71
2022/11/15 11:17:33;;;;;;;4.17;3.57;;;15.40;99.90;;;;;;5074639;28;20470;-72
2022/11/15 11:20:05;;;;;;;3.97;3.67;;;15.40;99.90;;;;;;5074561;28;20438;-71
2022/11/15 11:22:40;;;;;;;4.63;4.23;;;15.40;99.90;;;;;;5076080;28;20438;-71
2022/11/15 11:25:19;;;;;;;4.30;3.90;;;15.40;99.90;;;;;;5078252;28;20473;-70
2022/11/15 11:27:58;;;;;;;4.07;3.63;;;15.30;99.90;;;;;;5074599;28;20936;-71
2022/11/15 11:30:32;;;;;;;4.13;3.73;;;15.20;99.90;;;;;;5075207;28;20435;-71
2022/11/15 11:33:11;;;;;;;7.17;3.83;;;15.20;99.90;;;;;;5074607;28;20488;-72
2022/11/15 11:36:00;;;;;;;4.53;3.97;;;15.30;99.90;;;;;;5074153;28;20513;-71
2022/11/15 11:38:44;;;;;;;3.80;3.50;;;15.30;99.90;;;;;;5074447;28;20434;-69
2022/11/15 11:41:21;;;;;;;4.63;4.00;;;15.30;99.90;;;;;;5074242;28;20829;-69
2022/11/15 11:43:56;;;;;;;11.93;4.10;;;15.40;99.90;;;;;;5073757;28;20442;-69
2022/11/15 11:46:48;;;;;;;4.27;3.97;;;15.40;99.90;;;;;;5073968;28;20435;-69
2022/11/15 11:49:22;;;;;;;4.03;3.73;;;15.50;99.90;;;;;;5073614;28;20462;-70
2022/11/15 11:51:55;;;;;;;4.20;3.40;;;15.60;99.90;;;;;;5074245;28;20438;-70
2022/11/15 11:54:30;;;;;;;6.60;4.00;;;15.60;99.90;;;;;;5077901;28;20482;-69
2022/11/15 11:56:59;;;;;;;4.60;3.80;;;15.60;99.90;;;;;;5077737;28;20454;-70
2022/11/15 11:59:36;;;;;;;4.13;3.73;;;15.60;99.90;;;;;;5077733;28;20504;-69
2022/11/15 12:02:13;;;;;;;6.47;3.50;;;15.70;99.90;;;;;;5077699;28;20904;-70
2022/11/15 12:04:45;;;;;;;4.33;3.00;;;15.70;99.90;;;;;;5077815;28;20519;-70
2022/11/15 12:07:16;;;;;;;4.13;2.97;;;15.80;99.90;;;;;;5078274;28;20435;-70
2022/11/15 12:09:50;;;;;;;4.40;4.00;;;15.80;99.90;;;;;;5077783;28;20438;-70
2022/11/15 12:12:24;;;;;;;8.10;3.67;;;15.80;99.90;;;;;;5077475;28;20442;-69
2022/11/15 12:14:54;;;;;;;7.27;4.33;;;15.80;99.90;;;;;;5076931;28;20470;-70
2022/11/15 12:17:24;;;;;;;4.03;2.80;;;15.90;99.90;;;;;;5076834;28;20929;-70
2022/11/15 12:19:53;;;;;;;3.90;3.50;;;15.90;99.90;;;;;;5077241;28;20453;-70
2022/11/15 12:22:24;;;;;;;3.97;3.57;;;16.00;99.90;;;;;;5077498;28;20458;-70
2022/11/15 12:24:57;;;;;;;3.70;3.33;;;16.10;99.90;;;;;;5077502;28;20469;-69
2022/11/15 12:27:41;;;;;;;3.27;3.07;;;16.10;99.90;;;;;;5077633;28;20438;-69
2022/11/15 12:30:12;;;;;;;4.17;3.57;;;16.10;99.90;;;;;;5077376;28;20484;-71
2022/11/15 12:32:49;;;;;;;3.37;3.07;;;16.10;99.90;;;;;;5077251;28;20434;-69
2022/11/15 12:35:27;;;;;;;3.83;3.37;;;16.10;99.90;;;;;;5076668;28;20499;-70
2022/11/15 12:37:57;;;;;;;3.83;3.50;;;16.10;99.90;;;;;;5076770;28;20469;-70
2022/11/15 12:40:32;;;;;;;3.80;3.03;;;16.00;99.90;;;;;;5076460;28;20945;-70
2022/11/15 12:43:30;;;;;;;3.40;3.20;;;15.90;99.90;;;;;;5076722;28;20449;-69
2022/11/15 12:46:04;;;;;;;4.00;3.40;;;15.90;99.90;;;;;;5076452;28;20933;-69
2022/11/15 12:48:59;;;;;;;3.50;3.17;;;15.70;99.90;;;;;;5076489;28;20487;-69
2022/11/15 12:52:07;;;;;;;8.87;3.70;;;15.70;99.90;;;;;;5076785;28;20938;-69
2022/11/15 12:55:31;;;;;;;4.50;3.30;;;15.70;99.90;;;;;;5079025;28;20469;-69
2022/11/15 12:58:28;;;;;;;4.87;3.00;;;15.60;99.90;;;;;;5014480;28;20811;-70
2022/11/15 13:00:54;;;;;;;4.60;3.53;;;15.50;99.90;;;;;;5015104;28;20441;-70
2022/11/15 13:03:29;;;;;;;3.37;2.97;;;15.50;99.90;;;;;;5063440;28;20450;-70
2022/11/15 13:06:05;;;;;;;4.00;3.27;;;15.50;99.90;;;;;;5077861;28;20544;-70
2022/11/15 13:08:51;;;;;;;4.10;3.50;;;15.40;99.90;;;;;;5076448;28;20845;-69
2022/11/15 13:11:53;;;;;;;4.13;3.10;;;15.50;99.90;;;;;;5073913;28;20454;-69
2022/11/15 13:14:44;;;;;;;3.40;3.17;;;15.50;99.90;;;;;;5076196;28;20478;-69
2022/11/15 13:17:43;;;;;;;3.57;2.97;;;15.40;99.90;;;;;;5076197;28;20595;-70
2022/11/15 13:20:31;;;;;;;4.17;3.23;;;15.40;99.90;;;;;;5014076;28;20822;-69